Sveva — IBEU — position and weather

sailwx.info

Track history (hours):
 
Tides and Currents Weather Stations Pressure Air Temp Water Temp Dewpoint Dewpoint Depression Visibility Wind Speed Wind Dir Waves Ship Positions

Sveva

Last reported at 2017-Nov-18 17:49 UTC. Time now 2017-Nov-20 05:56 UTC.
Position S 00°19' W 045°58'.

Length 136 m; draft 7.9 m.

Type: Ship (hazmat cat B). MMSI: 247359000.

Date/timePositionNaut miles runAvg speedWind from/ knotsBaromVisibWave heightAir tempDewpointWater temp
2017-Nov-18 17:49S 00°19' W 045°58'510.5
2017-Nov-18 17:23S 00°18' W 046°03'410.8
2017-Nov-18 17:00S 00°17' W 046°07'1311.2
2017-Nov-18 15:51S 00°15' W 046°20'811.7
2017-Nov-18 15:12S 00°14' W 046°27'312.0
2017-Nov-18 14:58S 00°14' W 046°30'912.1
2017-Nov-18 14:11S 00°12' W 046°39'312.0
2017-Nov-18 13:58S 00°11' W 046°42'612.0
2017-Nov-18 13:30S 00°10' W 046°47'2111.4
2017-Nov-18 11:41S 00°08' W 047°08'211.0
2017-Nov-18 11:30S 00°08' W 047°10'610.6
2017-Nov-18 10:59S 00°09' W 047°16'510.3
2017-Nov-18 10:30S 00°09' W 047°20'510.1
2017-Nov-18 10:00S 00°10' W 047°25'5 9.9
2017-Nov-18 09:30S 00°10' W 047°30'5 9.7
2017-Nov-18 09:00S 00°11' W 047°35'5 9.6
2017-Nov-18 08:30S 00°12' W 047°40'510.3
2017-Nov-18 08:00S 00°12' W 047°45'510.8
2017-Nov-18 07:30S 00°13' W 047°50'611.6
2017-Nov-18 07:00S 00°16' W 047°55'612.2
2017-Nov-18 06:30S 00°19' W 048°01'713.1
2017-Nov-18 06:00S 00°21' W 048°07'713.7
2017-Nov-18 05:29S 00°26' W 048°13'1713.7
2017-Nov-18 04:15S 00°39' W 048°23'313.1
2017-Nov-18 04:01S 00°42' W 048°25'612.3
2017-Nov-18 03:30S 00°47' W 048°28'511.1
2017-Nov-18 03:00S 00°52' W 048°29'510.9
2017-Nov-18 02:31S 00°57' W 048°27'5 9.8
2017-Nov-18 02:01S 01°02' W 048°29'4 8.6
2017-Nov-18 01:30S 01°06' W 048°31'4 7.6
2017-Nov-18 01:01S 01°09' W 048°30'4 7.3
2017-Nov-18 00:31S 01°13' W 048°29'4 8.3
2017-Nov-18 00:01S 01°17' W 048°30'3 5.7
2017-Nov-17 23:28S 01°20' W 048°29'0 0.0
2017-Nov-17 22:58S 01°20' W 048°29'0 0.0
2017-Nov-17 22:28S 01°20' W 048°29'0 0.0
2017-Nov-17 21:58S 01°20' W 048°29'0 0.0
2017-Nov-17 21:28S 01°20' W 048°29'0 0.0
2017-Nov-17 20:58S 01°20' W 048°29'0 0.0
2017-Nov-17 20:22S 01°20' W 048°29'0 0.0
2017-Nov-17 19:58S 01°20' W 048°29'0 0.0
2017-Nov-17 19:28S 01°20' W 048°29'0 0.0
2017-Nov-17 18:58S 01°20' W 048°29'0 0.0
2017-Nov-17 18:28S 01°20' W 048°29'0 0.0
2017-Nov-17 17:58S 01°20' W 048°29'0 0.0
2017-Nov-17 17:28S 01°20' W 048°29'0 0.0
2017-Nov-17 16:49S 01°20' W 048°29'0 0.0
2017-Nov-17 16:28S 01°20' W 048°29'0 0.0
2017-Nov-17 15:58S 01°20' W 048°29'0 0.0
2017-Nov-17 15:28S 01°20' W 048°29'0 0.0
2017-Nov-17 14:58S 01°20' W 048°29'0 0.0
2017-Nov-17 14:25S 01°20' W 048°29'0 0.0
2017-Nov-17 13:55S 01°20' W 048°29'0 0.0
2017-Nov-17 13:22S 01°20' W 048°29'0 0.0
2017-Nov-17 12:58S 01°20' W 048°29'0 0.0
2017-Nov-17 12:28S 01°20' W 048°29'0 0.0
2017-Nov-17 11:58S 01°20' W 048°29'0 0.0
2017-Nov-17 11:28S 01°20' W 048°29'0 0.0
2017-Nov-17 10:58S 01°20' W 048°29'0 0.0
2017-Nov-17 10:28S 01°20' W 048°29'0 0.0
2017-Nov-17 09:58S 01°20' W 048°29'0 0.0
2017-Nov-17 09:28S 01°20' W 048°29'0 0.0
2017-Nov-17 08:58S 01°20' W 048°29'0 0.0
2017-Nov-17 08:25S 01°20' W 048°29'0 0.0
2017-Nov-17 07:58S 01°20' W 048°29'0 0.0
2017-Nov-17 07:28S 01°20' W 048°29'0 0.0
2017-Nov-17 06:58S 01°20' W 048°29'0 0.0
2017-Nov-17 06:28S 01°20' W 048°29'0 0.0
2017-Nov-17 05:58S 01°20' W 048°29'0 0.0
2017-Nov-17 05:28S 01°20' W 048°29'0 0.0
2017-Nov-17 04:55S 01°20' W 048°29'0 0.0
2017-Nov-17 04:28S 01°20' W 048°29'0 0.0
2017-Nov-17 03:55S 01°20' W 048°29'0 0.0
2017-Nov-17 03:28S 01°20' W 048°29'0 0.0
2017-Nov-17 02:58S 01°20' W 048°29'0 0.0
2017-Nov-17 02:28S 01°20' W 048°29'0 0.0
2017-Nov-17 01:55S 01°20' W 048°29'0 0.0
2017-Nov-17 01:28S 01°20' W 048°29'0 0.0
2017-Nov-17 00:58S 01°20' W 048°29'0 0.0
2017-Nov-17 00:28S 01°20' W 048°29'0 0.0
2017-Nov-16 23:58S 01°20' W 048°29'0 0.0
2017-Nov-16 23:28S 01°20' W 048°29'0 0.0
2017-Nov-16 22:58S 01°20' W 048°29'0 0.0
2017-Nov-16 22:28S 01°20' W 048°29'0 0.0
2017-Nov-16 21:58S 01°20' W 048°29'0 0.0
2017-Nov-16 21:28S 01°20' W 048°29'0 0.0
2017-Nov-16 20:58S 01°20' W 048°29'0 0.0
2017-Nov-16 20:28S 01°20' W 048°29'  
Track history (hours):
 
Tides and Currents Weather Stations Pressure Air Temp Water Temp Dewpoint Dewpoint Depression Visibility Wind Speed Wind Dir Waves Ship Positions

Sveva

Last reported at 2017-Nov-18 17:49 UTC. Time now 2017-Nov-20 05:56 UTC.
Position S 00°19' W 045°58'.

Length 136 m; draft 7.9 m.

Type: Ship (hazmat cat B). MMSI: 247359000.

Date/timePositionNaut miles runAvg speedWind from/ knotsBaromVisibWave heightAir tempDewpointWater temp
2017-Nov-18 17:49S 00°19' W 045°58'510.5
2017-Nov-18 17:23S 00°18' W 046°03'410.8
2017-Nov-18 17:00S 00°17' W 046°07'1311.2
2017-Nov-18 15:51S 00°15' W 046°20'811.7
2017-Nov-18 15:12S 00°14' W 046°27'312.0
2017-Nov-18 14:58S 00°14' W 046°30'912.1
2017-Nov-18 14:11S 00°12' W 046°39'312.0
2017-Nov-18 13:58S 00°11' W 046°42'612.0
2017-Nov-18 13:30S 00°10' W 046°47'2111.4
2017-Nov-18 11:41S 00°08' W 047°08'211.0
2017-Nov-18 11:30S 00°08' W 047°10'610.6
2017-Nov-18 10:59S 00°09' W 047°16'510.3
2017-Nov-18 10:30S 00°09' W 047°20'510.1
2017-Nov-18 10:00S 00°10' W 047°25'5 9.9
2017-Nov-18 09:30S 00°10' W 047°30'5 9.7
2017-Nov-18 09:00S 00°11' W 047°35'5 9.6
2017-Nov-18 08:30S 00°12' W 047°40'510.3
2017-Nov-18 08:00S 00°12' W 047°45'510.8
2017-Nov-18 07:30S 00°13' W 047°50'611.6
2017-Nov-18 07:00S 00°16' W 047°55'612.2
2017-Nov-18 06:30S 00°19' W 048°01'713.1
2017-Nov-18 06:00S 00°21' W 048°07'713.7
2017-Nov-18 05:29S 00°26' W 048°13'1713.7
2017-Nov-18 04:15S 00°39' W 048°23'313.1
2017-Nov-18 04:01S 00°42' W 048°25'612.3
2017-Nov-18 03:30S 00°47' W 048°28'511.1
2017-Nov-18 03:00S 00°52' W 048°29'510.9
2017-Nov-18 02:31S 00°57' W 048°27'5 9.8
2017-Nov-18 02:01S 01°02' W 048°29'4 8.6
2017-Nov-18 01:30S 01°06' W 048°31'4 7.6
2017-Nov-18 01:01S 01°09' W 048°30'4 7.3
2017-Nov-18 00:31S 01°13' W 048°29'4 8.3
2017-Nov-18 00:01S 01°17' W 048°30'3 5.7
2017-Nov-17 23:28S 01°20' W 048°29'0 0.0
2017-Nov-17 22:58S 01°20' W 048°29'0 0.0
2017-Nov-17 22:28S 01°20' W 048°29'0 0.0
2017-Nov-17 21:58S 01°20' W 048°29'0 0.0
2017-Nov-17 21:28S 01°20' W 048°29'0 0.0
2017-Nov-17 20:58S 01°20' W 048°29'0 0.0
2017-Nov-17 20:22S 01°20' W 048°29'0 0.0
2017-Nov-17 19:58S 01°20' W 048°29'0 0.0
2017-Nov-17 19:28S 01°20' W 048°29'0 0.0
2017-Nov-17 18:58S 01°20' W 048°29'0 0.0
2017-Nov-17 18:28S 01°20' W 048°29'0 0.0
2017-Nov-17 17:58S 01°20' W 048°29'0 0.0
2017-Nov-17 17:28S 01°20' W 048°29'0 0.0
2017-Nov-17 16:49S 01°20' W 048°29'0 0.0
2017-Nov-17 16:28S 01°20' W 048°29'0 0.0
2017-Nov-17 15:58S 01°20' W 048°29'0 0.0
2017-Nov-17 15:28S 01°20' W 048°29'0 0.0
2017-Nov-17 14:58S 01°20' W 048°29'0 0.0
2017-Nov-17 14:25S 01°20' W 048°29'0 0.0
2017-Nov-17 13:55S 01°20' W 048°29'0 0.0
2017-Nov-17 13:22S 01°20' W 048°29'0 0.0
2017-Nov-17 12:58S 01°20' W 048°29'0 0.0
2017-Nov-17 12:28S 01°20' W 048°29'0 0.0
2017-Nov-17 11:58S 01°20' W 048°29'0 0.0
2017-Nov-17 11:28S 01°20' W 048°29'0 0.0
2017-Nov-17 10:58S 01°20' W 048°29'0 0.0
2017-Nov-17 10:28S 01°20' W 048°29'0 0.0
2017-Nov-17 09:58S 01°20' W 048°29'0 0.0
2017-Nov-17 09:28S 01°20' W 048°29'0 0.0
2017-Nov-17 08:58S 01°20' W 048°29'0 0.0
2017-Nov-17 08:25S 01°20' W 048°29'0 0.0
2017-Nov-17 07:58S 01°20' W 048°29'0 0.0
2017-Nov-17 07:28S 01°20' W 048°29'0 0.0
2017-Nov-17 06:58S 01°20' W 048°29'0 0.0
2017-Nov-17 06:28S 01°20' W 048°29'0 0.0
2017-Nov-17 05:58S 01°20' W 048°29'0 0.0
2017-Nov-17 05:28S 01°20' W 048°29'0 0.0
2017-Nov-17 04:55S 01°20' W 048°29'0 0.0
2017-Nov-17 04:28S 01°20' W 048°29'0 0.0
2017-Nov-17 03:55S 01°20' W 048°29'0 0.0
2017-Nov-17 03:28S 01°20' W 048°29'0 0.0
2017-Nov-17 02:58S 01°20' W 048°29'0 0.0
2017-Nov-17 02:28S 01°20' W 048°29'0 0.0
2017-Nov-17 01:55S 01°20' W 048°29'0 0.0
2017-Nov-17 01:28S 01°20' W 048°29'0 0.0
2017-Nov-17 00:58S 01°20' W 048°29'0 0.0
2017-Nov-17 00:28S 01°20' W 048°29'0 0.0
2017-Nov-16 23:58S 01°20' W 048°29'0 0.0
2017-Nov-16 23:28S 01°20' W 048°29'0 0.0
2017-Nov-16 22:58S 01°20' W 048°29'0 0.0
2017-Nov-16 22:28S 01°20' W 048°29'0 0.0
2017-Nov-16 21:58S 01°20' W 048°29'0 0.0
2017-Nov-16 21:28S 01°20' W 048°29'0 0.0
2017-Nov-16 20:58S 01°20' W 048°29'0 0.0
2017-Nov-16 20:28S 01°20' W 048°29'  

Dump ship's entire track history